createdAt,value
2023-03-11T00:02:37.085Z,95652.81
2023-03-11T00:05:41.111Z,95660.22
2023-03-11T00:08:43.234Z,95666.59
2023-03-11T00:11:45.293Z,95672.16
2023-03-11T00:14:47.278Z,95664.00
2023-03-11T00:17:49.355Z,95669.31
2023-03-11T00:20:51.537Z,95683.31
2023-03-11T00:23:53.558Z,95668.44
2023-03-11T00:26:55.571Z,95672.94
2023-03-11T00:29:57.511Z,95670.56
2023-03-11T00:33:00.559Z,95671.91
2023-03-11T00:36:02.806Z,95695.50
2023-03-11T00:39:06.781Z,95706.47
2023-03-11T00:42:08.757Z,95743.38
2023-03-11T00:45:11.423Z,95783.16
2023-03-11T00:48:14.696Z,95748.31
2023-03-11T00:51:16.759Z,95762.94
2023-03-11T00:54:18.762Z,95770.69
2023-03-11T00:57:21.018Z,95763.81
2023-03-11T01:00:24.579Z,95780.25
2023-03-11T01:03:26.610Z,95777.06
2023-03-11T01:06:39.161Z,95791.09
2023-03-11T01:09:46.660Z,95786.59
2023-03-11T01:12:49.109Z,95786.59
2023-03-11T01:15:51.206Z,95807.25
2023-03-11T01:18:53.272Z,95783.97
2023-03-11T01:21:55.215Z,95800.13
2023-03-11T01:24:57.260Z,95758.28
2023-03-11T01:27:59.845Z,95775.97
2023-03-11T01:31:02.001Z,95835.78
2023-03-11T01:34:05.147Z,95834.72
2023-03-11T01:37:07.126Z,95821.53
2023-03-11T01:40:14.484Z,95819.41
2023-03-11T01:43:41.034Z,95838.72
2023-03-11T01:46:55.187Z,95846.91
2023-03-11T01:50:01.711Z,95838.19
2023-03-11T01:53:06.046Z,95863.56
2023-03-11T01:56:09.209Z,95849.28
2023-03-11T01:59:14.789Z,95875.44
2023-03-11T02:02:34.549Z,95685.81
2023-03-11T02:05:37.672Z,95916.94
2023-03-11T02:08:42.064Z,95869.53
2023-03-11T02:11:45.181Z,95855.50
2023-03-11T02:14:50.876Z,95832.97
2023-03-11T02:17:53.924Z,95867.81
2023-03-11T02:21:12.135Z,95839.78
2023-03-11T02:24:31.469Z,95843.84
2023-03-11T02:27:39.306Z,95814.84
2023-03-11T02:30:43.838Z,95824.22
2023-03-11T02:33:49.379Z,95842.59
2023-03-11T02:36:52.371Z,95853.94
2023-03-11T02:40:15.967Z,95884.16
2023-03-11T02:43:23.483Z,95858.34
2023-03-11T02:46:26.465Z,95839.59
2023-03-11T02:49:29.896Z,95841.63
2023-03-11T02:52:34.726Z,95935.69
2023-03-11T02:55:36.864Z,95885.75
2023-03-11T02:58:39.217Z,95887.44
2023-03-11T03:01:41.261Z,95895.81
2023-03-11T03:04:43.802Z,95890.22
2023-03-11T03:07:46.264Z,95893.53
2023-03-11T03:10:48.376Z,95848.88
2023-03-11T03:13:50.400Z,95923.19
2023-03-11T03:16:52.686Z,95886.25
2023-03-11T03:19:54.764Z,95886.19
2023-03-11T03:22:56.960Z,95935.44
2023-03-11T03:26:02.879Z,95907.50
2023-03-11T03:29:05.754Z,95866.97
2023-03-11T03:32:08.207Z,95951.59
2023-03-11T03:35:10.917Z,95897.22
2023-03-11T03:38:45.437Z,95945.84
2023-03-11T03:41:47.578Z,95929.38
2023-03-11T03:44:49.827Z,95973.97
2023-03-11T03:47:51.900Z,95898.00
2023-03-11T03:50:56.032Z,95948.84
2023-03-11T03:53:58.187Z,95956.41
2023-03-11T03:57:01.271Z,95950.53
2023-03-11T04:00:09.242Z,95964.94
2023-03-11T04:03:15.543Z,95977.06
2023-03-11T04:06:26.771Z,95937.22
2023-03-11T04:09:42.490Z,95904.16
2023-03-11T04:12:45.430Z,95969.00
2023-03-11T04:15:47.672Z,95952.25
2023-03-11T04:18:49.859Z,95948.41
2023-03-11T04:21:53.051Z,95934.88
2023-03-11T04:24:56.930Z,95945.38
2023-03-11T04:27:59.072Z,95950.16
2023-03-11T04:31:01.907Z,95943.06
2023-03-11T04:34:06.861Z,95962.34
2023-03-11T04:37:10.421Z,95945.34
2023-03-11T04:40:12.888Z,95947.38
2023-03-11T04:43:15.855Z,95950.94
2023-03-11T04:46:17.905Z,95918.16
2023-03-11T04:49:20.108Z,95944.03
2023-03-11T04:52:23.325Z,95874.34
2023-03-11T04:55:25.331Z,95975.47
2023-03-11T04:58:27.956Z,95950.78
2023-03-11T05:01:30.360Z,95977.44
2023-03-11T05:04:36.028Z,95950.44
2023-03-11T05:07:38.342Z,95957.53
2023-03-11T05:10:42.941Z,95957.78
2023-03-11T05:13:45.449Z,95963.94
2023-03-11T05:16:48.682Z,95978.38
2023-03-11T05:19:53.770Z,95959.19
2023-03-11T05:23:00.361Z,95986.50
2023-03-11T05:26:05.548Z,95941.91
2023-03-11T05:29:08.308Z,95800.03
2023-03-11T05:32:10.445Z,95951.13
2023-03-11T05:35:12.720Z,95960.22
2023-03-11T05:38:15.299Z,95854.44
2023-03-11T05:41:19.331Z,95956.06
2023-03-11T05:44:21.413Z,95945.72
2023-03-11T05:47:23.665Z,95976.53
2023-03-11T05:50:26.163Z,95939.56
2023-03-11T05:53:28.855Z,95964.47
2023-03-11T05:56:30.962Z,95960.88
2023-03-11T05:59:34.264Z,95967.00
2023-03-11T06:02:41.163Z,95961.41
2023-03-11T06:05:49.053Z,95963.53
2023-03-11T06:08:51.272Z,95904.56
2023-03-11T06:11:55.144Z,95969.13
2023-03-11T06:15:00.657Z,95936.69
2023-03-11T06:18:03.184Z,95965.72
2023-03-11T06:21:05.701Z,95963.41
2023-03-11T06:24:08.565Z,95985.75
2023-03-11T06:27:11.438Z,95969.72
2023-03-11T06:30:15.931Z,95985.88
2023-03-11T06:33:26.924Z,96007.25
2023-03-11T06:36:29.001Z,96000.75
2023-03-11T06:39:31.092Z,95967.59
2023-03-11T06:42:33.236Z,95998.25
2023-03-11T06:45:36.010Z,96030.00
2023-03-11T06:48:38.501Z,96036.13
2023-03-11T06:51:41.620Z,96007.50
2023-03-11T06:54:45.723Z,96024.41
2023-03-11T06:57:49.926Z,95999.88
2023-03-11T07:00:52.199Z,96042.53
2023-03-11T07:03:54.826Z,96011.03
2023-03-11T07:06:59.025Z,96042.00
2023-03-11T07:10:01.299Z,96028.31
2023-03-11T07:13:03.540Z,96024.69
2023-03-11T07:16:12.932Z,96048.69
2023-03-11T07:19:15.300Z,96037.25
2023-03-11T07:22:17.871Z,96031.16
2023-03-11T07:25:19.861Z,95961.97
2023-03-11T07:28:26.355Z,96055.75
2023-03-11T07:31:33.327Z,95993.25
2023-03-11T07:34:35.747Z,96029.56
2023-03-11T07:37:37.771Z,96032.97
2023-03-11T07:40:39.747Z,96034.34
2023-03-11T07:43:42.792Z,96022.06
2023-03-11T07:46:47.022Z,96008.22
2023-03-11T07:49:49.074Z,96016.00
2023-03-11T07:52:51.075Z,96019.59
2023-03-11T07:55:58.576Z,96031.19
2023-03-11T07:59:02.302Z,96023.72
2023-03-11T08:02:04.915Z,96027.53
2023-03-11T08:05:07.704Z,96054.97
2023-03-11T08:08:10.313Z,96036.81
2023-03-11T08:11:13.744Z,96051.34
2023-03-11T08:14:15.943Z,96055.00
2023-03-11T08:17:18.121Z,96073.28
2023-03-11T08:20:20.397Z,96082.81
2023-03-11T08:23:22.574Z,96108.81
2023-03-11T08:26:27.116Z,96090.69
2023-03-11T08:29:30.425Z,96107.22
2023-03-11T08:32:33.470Z,96127.59
2023-03-11T08:35:35.607Z,96126.16
2023-03-11T08:38:44.246Z,96141.47
2023-03-11T08:41:46.381Z,96132.38
2023-03-11T08:44:48.468Z,96159.41
2023-03-11T08:47:50.603Z,96174.38
2023-03-11T08:50:54.644Z,96184.03
2023-03-11T08:53:57.279Z,96142.69
2023-03-11T08:57:03.196Z,96182.38
2023-03-11T09:00:11.529Z,96236.28
2023-03-11T09:03:15.482Z,96181.44
2023-03-11T09:06:18.557Z,96155.25
2023-03-11T09:09:20.718Z,96194.25
2023-03-11T09:12:23.005Z,96205.56
2023-03-11T09:15:25.304Z,96217.38
2023-03-11T09:18:28.806Z,96236.41
2023-03-11T09:21:30.991Z,96210.53
2023-03-11T09:24:35.165Z,96221.38
2023-03-11T09:27:37.320Z,96253.72
2023-03-11T09:30:40.013Z,96234.34
2023-03-11T09:33:43.051Z,96201.78
2023-03-11T09:36:45.457Z,96250.22
2023-03-11T09:39:47.544Z,96256.09
2023-03-11T09:43:18.682Z,96258.97
2023-03-11T09:46:39.524Z,96285.50
2023-03-11T09:50:21.025Z,96277.38
2023-03-11T09:53:55.127Z,96295.81
2023-03-11T09:56:57.481Z,96307.06
2023-03-11T10:00:02.473Z,96287.41
2023-03-11T10:03:27.347Z,96306.19
2023-03-11T10:06:30.732Z,96332.28
2023-03-11T10:09:43.892Z,96322.19
2023-03-11T10:13:16.982Z,96294.44
2023-03-11T10:16:29.844Z,96361.00
2023-03-11T10:19:56.804Z,96351.13
2023-03-11T10:23:22.421Z,96362.81
2023-03-11T10:26:57.787Z,96361.88
2023-03-11T10:30:30.827Z,96372.16
2023-03-11T10:33:49.220Z,96367.13
2023-03-11T10:37:04.529Z,96394.16
2023-03-11T10:40:31.692Z,96386.13
2023-03-11T10:43:45.398Z,96396.03
2023-03-11T10:46:47.859Z,96388.84
2023-03-11T10:49:50.797Z,96379.06
2023-03-11T10:53:22.941Z,96401.59
2023-03-11T10:56:28.139Z,96414.38
2023-03-11T10:59:34.426Z,96438.13
2023-03-11T11:02:50.413Z,96418.06
2023-03-11T11:06:07.970Z,96429.78
2023-03-11T11:09:18.038Z,96439.84
2023-03-11T11:12:21.425Z,96446.38
2023-03-11T11:15:31.855Z,96414.00
2023-03-11T11:18:42.548Z,96437.81
2023-03-11T11:21:52.590Z,96458.78
2023-03-11T11:24:56.999Z,96399.56
2023-03-11T11:28:02.694Z,96458.41
2023-03-11T11:31:19.244Z,96445.69
2023-03-11T11:34:31.601Z,96463.44
2023-03-11T11:37:37.787Z,96452.91
2023-03-11T11:40:40.444Z,96461.75
2023-03-11T11:43:56.219Z,96458.91
2023-03-11T11:47:06.335Z,96385.34
2023-03-11T11:50:18.951Z,96458.03
2023-03-11T11:53:28.649Z,96448.75
2023-03-11T11:56:30.943Z,96458.50
2023-03-11T11:59:33.056Z,96455.44
2023-03-11T12:02:54.908Z,96455.47
2023-03-11T12:06:00.819Z,96450.72
2023-03-11T12:09:39.063Z,96454.91
2023-03-11T12:12:57.091Z,96463.19
2023-03-11T12:16:31.693Z,96472.00
2023-03-11T12:19:56.626Z,96466.72
2023-03-11T12:23:10.393Z,96470.72
2023-03-11T12:26:21.772Z,96435.69
2023-03-11T12:29:55.610Z,96432.41
2023-03-11T12:33:34.281Z,96472.91
2023-03-11T12:36:47.113Z,96489.66
2023-03-11T12:39:49.301Z,96471.22
2023-03-11T12:42:51.415Z,96507.91
2023-03-11T12:45:55.864Z,96501.03
2023-03-11T12:49:14.070Z,96407.47
2023-03-11T12:52:30.302Z,96467.59
2023-03-11T12:55:35.171Z,96400.63
2023-03-11T12:59:20.175Z,96507.69
2023-03-11T13:02:31.015Z,96516.56
2023-03-11T13:05:59.523Z,96512.63
2023-03-11T13:09:03.481Z,96524.81
2023-03-11T13:12:40.436Z,96541.09
2023-03-11T13:15:43.421Z,96537.47
2023-03-11T13:18:47.924Z,96558.34
2023-03-11T13:21:50.117Z,96567.53
2023-03-11T13:24:52.405Z,96576.13
2023-03-11T13:28:17.215Z,96591.38
2023-03-11T13:31:34.939Z,96601.69
2023-03-11T13:34:40.859Z,96618.06
2023-03-11T13:38:20.467Z,96617.13
2023-03-11T13:41:32.169Z,96604.63
2023-03-11T13:44:39.785Z,96598.38
2023-03-11T13:47:49.799Z,96588.50
2023-03-11T13:51:15.419Z,96612.53
2023-03-11T13:54:23.574Z,96630.56
2023-03-11T13:57:37.973Z,96634.31
2023-03-11T14:00:48.872Z,96637.31
2023-03-11T14:03:51.460Z,96621.22
2023-03-11T14:06:53.610Z,96654.38
2023-03-11T14:10:18.198Z,96656.66
2023-03-11T14:13:23.799Z,96655.47
2023-03-11T14:16:44.308Z,96663.75
2023-03-11T14:20:07.720Z,96626.13
2023-03-11T14:23:18.887Z,96667.75
2023-03-11T14:26:33.171Z,96641.41
2023-03-11T14:29:40.698Z,96641.84
2023-03-11T14:32:43.115Z,96683.06
2023-03-11T14:35:56.665Z,96688.59
2023-03-11T14:38:58.864Z,96680.13
2023-03-11T14:42:19.031Z,96691.69
2023-03-11T14:45:28.052Z,96704.53
2023-03-11T14:48:42.045Z,96694.06
2023-03-11T14:51:45.295Z,96680.19
2023-03-11T14:54:50.248Z,96706.59
2023-03-11T14:57:52.824Z,96695.81
2023-03-11T15:01:00.206Z,96704.09
2023-03-11T15:04:29.325Z,96698.94
2023-03-11T15:07:34.599Z,96714.09
2023-03-11T15:10:38.111Z,96715.16
2023-03-11T15:13:43.296Z,96734.28
2023-03-11T15:16:46.461Z,96702.56
2023-03-11T15:19:49.626Z,96736.88
2023-03-11T15:22:58.483Z,96727.16
2023-03-11T15:26:01.816Z,96689.75
2023-03-11T15:29:14.167Z,96713.31
2023-03-11T15:32:44.076Z,96740.72
2023-03-11T15:35:48.874Z,96712.28
2023-03-11T15:39:15.578Z,96707.00
2023-03-11T15:42:23.708Z,96753.56
2023-03-11T15:45:26.042Z,96736.75
2023-03-11T15:48:30.717Z,96728.75
2023-03-11T15:51:33.233Z,96756.91
2023-03-11T15:54:36.296Z,96751.16
2023-03-11T15:57:40.540Z,96791.34
2023-03-11T16:00:50.597Z,96746.59
2023-03-11T16:03:53.310Z,96789.25
2023-03-11T16:07:07.316Z,96794.88
2023-03-11T16:10:11.221Z,96770.75
2023-03-11T16:13:15.445Z,96767.44
2023-03-11T16:16:19.275Z,96807.75
2023-03-11T16:19:22.284Z,96809.16
2023-03-11T16:22:37.111Z,96811.19
2023-03-11T16:25:41.529Z,96820.72
2023-03-11T16:28:44.553Z,96821.53
2023-03-11T16:31:47.750Z,96821.56
2023-03-11T16:34:50.465Z,96836.88
2023-03-11T16:37:55.239Z,96846.16
2023-03-11T16:41:01.469Z,96845.19
2023-03-11T16:44:09.226Z,96790.81
2023-03-11T16:47:12.628Z,96854.31
2023-03-11T16:50:14.800Z,96863.09
2023-03-11T16:53:18.921Z,96866.25
2023-03-11T16:56:23.023Z,96877.03
2023-03-11T16:59:28.027Z,96863.81
2023-03-11T17:02:32.388Z,96883.41
2023-03-11T17:05:35.069Z,96893.31
2023-03-11T17:08:37.634Z,96900.72
2023-03-11T17:11:40.072Z,96904.19
2023-03-11T17:14:42.938Z,96873.25
2023-03-11T17:17:46.099Z,96899.84
2023-03-11T17:20:50.020Z,96913.19
2023-03-11T17:23:54.868Z,96899.13
2023-03-11T17:26:59.249Z,96939.66
2023-03-11T17:30:05.004Z,96936.56
2023-03-11T17:33:08.194Z,96935.28
2023-03-11T17:36:16.828Z,96918.03
2023-03-11T17:39:21.024Z,96956.56
2023-03-11T17:42:24.296Z,96940.22
2023-03-11T17:45:28.002Z,96941.19
2023-03-11T17:48:30.871Z,96948.72
2023-03-11T17:51:35.136Z,96955.06
2023-03-11T17:54:37.530Z,96969.31
2023-03-11T17:57:45.597Z,96966.00
2023-03-11T18:00:49.390Z,96971.09
2023-03-11T18:03:53.132Z,96978.75
2023-03-11T18:06:56.984Z,96964.34
2023-03-11T18:09:59.719Z,96989.94
2023-03-11T18:13:02.376Z,96993.63
2023-03-11T18:16:17.613Z,97000.72
2023-03-11T18:19:21.140Z,97019.78
2023-03-11T18:22:24.504Z,97014.13
2023-03-11T18:25:27.617Z,97023.03
2023-03-11T18:28:31.573Z,96977.84
2023-03-11T18:31:34.589Z,97010.16
2023-03-11T18:34:45.779Z,97031.56
2023-03-11T18:37:48.916Z,97033.78
2023-03-11T18:41:02.281Z,97041.66
2023-03-11T18:44:05.454Z,97045.47
2023-03-11T18:47:08.492Z,97027.56
2023-03-11T18:50:11.987Z,97051.53
2023-03-11T18:53:16.136Z,97053.78
2023-03-11T18:56:19.396Z,97056.63
2023-03-11T18:59:22.404Z,97062.25
2023-03-11T19:02:27.647Z,97040.66
2023-03-11T19:05:30.700Z,97062.41
2023-03-11T19:08:34.030Z,97054.72
2023-03-11T19:11:38.648Z,97063.81
2023-03-11T19:14:44.555Z,97051.72
2023-03-11T19:17:57.421Z,97083.47
2023-03-11T19:21:09.987Z,97077.88
2023-03-11T19:24:13.742Z,97060.88
2023-03-11T19:27:16.840Z,97090.66
2023-03-11T19:30:21.075Z,97083.53
2023-03-11T19:33:25.096Z,97089.41
2023-03-11T19:36:28.077Z,97062.78
2023-03-11T19:39:30.902Z,97060.00
2023-03-11T19:42:34.807Z,97096.09
2023-03-11T19:45:40.571Z,97093.72
2023-03-11T19:48:43.990Z,97099.97
2023-03-11T19:51:50.476Z,97097.00
2023-03-11T19:54:54.196Z,97110.13
2023-03-11T19:57:58.040Z,97075.63
2023-03-11T20:01:02.349Z,97105.38
2023-03-11T20:04:06.908Z,97111.03
2023-03-11T20:07:10.253Z,97118.31
2023-03-11T20:10:13.299Z,97032.44
2023-03-11T20:13:20.294Z,97123.38
2023-03-11T20:16:23.492Z,97112.84
2023-03-11T20:19:27.196Z,97130.66
2023-03-11T20:22:29.757Z,97131.47
2023-03-11T20:25:33.488Z,97127.44
2023-03-11T20:28:36.832Z,97135.91
2023-03-11T20:31:40.192Z,97134.50
2023-03-11T20:34:44.740Z,97140.97
2023-03-11T20:37:47.862Z,97136.09
2023-03-11T20:40:58.935Z,97096.66
2023-03-11T20:44:03.335Z,97084.31
2023-03-11T20:47:06.283Z,97140.91
2023-03-11T20:50:09.991Z,97151.63
2023-03-11T20:53:12.722Z,97149.75
2023-03-11T20:56:19.380Z,97149.31
2023-03-11T20:59:22.187Z,97145.88
2023-03-11T21:02:25.109Z,97155.50
2023-03-11T21:05:28.161Z,97154.03
2023-03-11T21:08:30.895Z,97123.78
2023-03-11T21:11:34.007Z,97145.97
2023-03-11T21:14:36.886Z,97165.84
2023-03-11T21:17:40.815Z,97178.97
2023-03-11T21:20:43.865Z,97164.22
2023-03-11T21:23:48.514Z,97178.38
2023-03-11T21:26:51.186Z,97181.88
2023-03-11T21:29:57.644Z,97175.63
2023-03-11T21:33:00.485Z,97182.38
2023-03-11T21:36:03.350Z,97153.25
2023-03-11T21:39:06.265Z,97184.09
2023-03-11T21:42:08.709Z,97192.75
2023-03-11T21:45:11.566Z,97176.59
2023-03-11T21:48:14.884Z,97184.72
2023-03-11T21:51:18.849Z,97156.81
2023-03-11T21:54:21.202Z,97194.00
2023-03-11T21:57:24.017Z,97142.56
2023-03-11T22:00:26.479Z,97163.81
2023-03-11T22:03:29.123Z,97187.31
2023-03-11T22:06:33.481Z,97197.44
2023-03-11T22:09:35.721Z,97176.53
2023-03-11T22:12:37.936Z,97201.66
2023-03-11T22:15:40.091Z,97208.16
2023-03-11T22:18:42.307Z,97216.03
2023-03-11T22:21:44.666Z,97225.28
2023-03-11T22:24:46.827Z,97223.47
2023-03-11T22:27:49.033Z,97215.50
2023-03-11T22:30:51.244Z,97193.69
2023-03-11T22:33:53.316Z,97240.03
2023-03-11T22:36:55.370Z,97247.31
2023-03-11T22:39:57.430Z,97249.34
2023-03-11T22:42:59.530Z,97256.84
2023-03-11T22:46:02.394Z,97229.94
2023-03-11T22:49:04.637Z,97250.03
2023-03-11T22:52:06.698Z,97256.50
2023-03-11T22:55:09.132Z,97241.13
2023-03-11T22:58:12.352Z,97257.53
2023-03-11T23:01:14.415Z,97225.31
2023-03-11T23:04:16.668Z,97243.25
2023-03-11T23:07:18.737Z,97218.22
2023-03-11T23:10:21.646Z,97260.94
2023-03-11T23:13:23.708Z,97259.28
2023-03-11T23:16:26.469Z,97267.81
2023-03-11T23:19:28.578Z,97278.53
2023-03-11T23:22:30.595Z,97263.78
2023-03-11T23:25:34.280Z,97276.31
2023-03-11T23:28:37.406Z,97249.56
2023-03-11T23:31:39.720Z,97279.72
2023-03-11T23:34:41.795Z,97284.75
2023-03-11T23:37:48.222Z,97291.38
2023-03-11T23:40:50.280Z,97288.72
2023-03-11T23:43:52.661Z,97294.91
2023-03-11T23:46:54.736Z,97299.28
2023-03-11T23:49:56.810Z,97300.28
2023-03-11T23:52:58.875Z,97169.13
2023-03-11T23:56:01.111Z,97307.69
2023-03-11T23:59:03.181Z,97309.88
